sensor_id;sensor_type;location;lat;lon;timestamp;temperature;humidity
73438;DHT22;62744;56.802;23.964;2022-10-30T00:01:15;10.20;97.90
73438;DHT22;62744;56.802;23.964;2022-10-30T00:03:43;10.20;98.30
73438;DHT22;62744;56.802;23.964;2022-10-30T00:06:10;10.30;98.40
73438;DHT22;62744;56.802;23.964;2022-10-30T00:08:38;10.40;98.00
73438;DHT22;62744;56.802;23.964;2022-10-30T00:11:11;10.30;97.40
73438;DHT22;62744;56.802;23.964;2022-10-30T00:13:41;10.20;97.70
73438;DHT22;62744;56.802;23.964;2022-10-30T00:16:09;10.20;97.60
73438;DHT22;62744;56.802;23.964;2022-10-30T00:18:38;10.10;98.00
73438;DHT22;62744;56.802;23.964;2022-10-30T00:21:11;10.10;98.00
73438;DHT22;62744;56.802;23.964;2022-10-30T00:23:45;10.10;98.00
73438;DHT22;62744;56.802;23.964;2022-10-30T00:26:14;10.10;97.70
73438;DHT22;62744;56.802;23.964;2022-10-30T00:28:42;10.00;97.90
73438;DHT22;62744;56.802;23.964;2022-10-30T00:31:10;10.10;97.90
73438;DHT22;62744;56.802;23.964;2022-10-30T00:33:37;10.00;97.40
73438;DHT22;62744;56.802;23.964;2022-10-30T00:36:05;9.90;97.50
73438;DHT22;62744;56.802;23.964;2022-10-30T00:38:33;9.80;98.20
73438;DHT22;62744;56.802;23.964;2022-10-30T00:41:00;9.80;98.60
73438;DHT22;62744;56.802;23.964;2022-10-30T00:46:12;9.70;99.00
73438;DHT22;62744;56.802;23.964;2022-10-30T00:48:44;9.80;98.70
73438;DHT22;62744;56.802;23.964;2022-10-30T00:51:14;9.80;98.10
73438;DHT22;62744;56.802;23.964;2022-10-30T00:53:42;9.70;98.10
73438;DHT22;62744;56.802;23.964;2022-10-30T00:56:10;9.80;98.50
73438;DHT22;62744;56.802;23.964;2022-10-30T00:58:43;9.70;98.60
73438;DHT22;62744;56.802;23.964;2022-10-30T01:01:17;9.80;98.60
73438;DHT22;62744;56.802;23.964;2022-10-30T01:03:47;9.70;98.90
73438;DHT22;62744;56.802;23.964;2022-10-30T01:06:16;9.70;99.20
73438;DHT22;62744;56.802;23.964;2022-10-30T01:08:44;9.70;98.40
73438;DHT22;62744;56.802;23.964;2022-10-30T01:11:12;9.70;98.50
73438;DHT22;62744;56.802;23.964;2022-10-30T01:13:42;9.70;99.20
73438;DHT22;62744;56.802;23.964;2022-10-30T01:22:13;9.80;98.40
73438;DHT22;62744;56.802;23.964;2022-10-30T01:25:02;9.70;98.00
73438;DHT22;62744;56.802;23.964;2022-10-30T01:35:40;9.50;96.20
73438;DHT22;62744;56.802;23.964;2022-10-30T01:40:49;9.40;94.60
73438;DHT22;62744;56.802;23.964;2022-10-30T01:43:17;9.30;93.80
73438;DHT22;62744;56.802;23.964;2022-10-30T01:46:17;9.30;93.60
73438;DHT22;62744;56.802;23.964;2022-10-30T02:02:32;9.30;83.10
73438;DHT22;62744;56.802;23.964;2022-10-30T02:05:00;9.20;83.30
73438;DHT22;62744;56.802;23.964;2022-10-30T02:07:28;9.30;82.80
73438;DHT22;62744;56.802;23.964;2022-10-30T02:09:56;9.00;83.50
73438;DHT22;62744;56.802;23.964;2022-10-30T02:12:23;9.00;84.20
73438;DHT22;62744;56.802;23.964;2022-10-30T02:14:56;8.90;84.30
73438;DHT22;62744;56.802;23.964;2022-10-30T02:17:26;8.80;85.50
73438;DHT22;62744;56.802;23.964;2022-10-30T02:19:54;8.60;85.80
73438;DHT22;62744;56.802;23.964;2022-10-30T02:22:22;8.50;86.00
73438;DHT22;62744;56.802;23.964;2022-10-30T02:24:51;8.40;86.60
73438;DHT22;62744;56.802;23.964;2022-10-30T02:27:18;8.40;87.00
73438;DHT22;62744;56.802;23.964;2022-10-30T02:29:45;8.20;87.20
73438;DHT22;62744;56.802;23.964;2022-10-30T02:32:13;8.20;87.60
73438;DHT22;62744;56.802;23.964;2022-10-30T02:34:41;8.00;88.80
73438;DHT22;62744;56.802;23.964;2022-10-30T02:37:10;7.90;89.20
73438;DHT22;62744;56.802;23.964;2022-10-30T02:39:37;8.00;89.90
73438;DHT22;62744;56.802;23.964;2022-10-30T02:42:05;8.10;89.90
73438;DHT22;62744;56.802;23.964;2022-10-30T02:44:32;8.00;90.30
73438;DHT22;62744;56.802;23.964;2022-10-30T02:47:00;8.00;90.10
73438;DHT22;62744;56.802;23.964;2022-10-30T02:49:27;8.00;90.20
73438;DHT22;62744;56.802;23.964;2022-10-30T02:51:55;8.10;89.80
73438;DHT22;62744;56.802;23.964;2022-10-30T02:54:22;8.10;89.20
73438;DHT22;62744;56.802;23.964;2022-10-30T02:56:50;8.20;89.00
73438;DHT22;62744;56.802;23.964;2022-10-30T02:59:17;8.20;88.40
73438;DHT22;62744;56.802;23.964;2022-10-30T03:01:45;8.10;87.40
73438;DHT22;62744;56.802;23.964;2022-10-30T03:04:13;8.20;87.00
73438;DHT22;62744;56.802;23.964;2022-10-30T03:06:40;8.20;87.20
73438;DHT22;62744;56.802;23.964;2022-10-30T03:09:08;8.10;86.60
73438;DHT22;62744;56.802;23.964;2022-10-30T03:11:36;8.10;86.40
73438;DHT22;62744;56.802;23.964;2022-10-30T03:14:03;8.20;86.10
73438;DHT22;62744;56.802;23.964;2022-10-30T03:16:30;8.10;86.30
73438;DHT22;62744;56.802;23.964;2022-10-30T03:18:59;8.10;85.90
73438;DHT22;62744;56.802;23.964;2022-10-30T03:21:27;8.00;86.20
73438;DHT22;62744;56.802;23.964;2022-10-30T03:23:55;7.90;86.00
73438;DHT22;62744;56.802;23.964;2022-10-30T03:26:23;8.00;85.80
73438;DHT22;62744;56.802;23.964;2022-10-30T03:28:50;7.90;85.30
73438;DHT22;62744;56.802;23.964;2022-10-30T03:31:18;7.90;85.40
73438;DHT22;62744;56.802;23.964;2022-10-30T03:33:46;7.80;85.30
73438;DHT22;62744;56.802;23.964;2022-10-30T03:36:14;7.70;85.60
73438;DHT22;62744;56.802;23.964;2022-10-30T03:38:42;7.70;86.00
73438;DHT22;62744;56.802;23.964;2022-10-30T03:41:09;7.50;86.20
73438;DHT22;62744;56.802;23.964;2022-10-30T03:43:37;7.50;86.30
73438;DHT22;62744;56.802;23.964;2022-10-30T03:46:04;7.40;86.20
73438;DHT22;62744;56.802;23.964;2022-10-30T03:48:32;7.30;86.80
73438;DHT22;62744;56.802;23.964;2022-10-30T03:50:59;7.30;86.60
73438;DHT22;62744;56.802;23.964;2022-10-30T03:53:28;7.10;86.80
73438;DHT22;62744;56.802;23.964;2022-10-30T03:56:00;7.10;87.80
73438;DHT22;62744;56.802;23.964;2022-10-30T03:58:28;7.00;87.30
73438;DHT22;62744;56.802;23.964;2022-10-30T04:01:03;6.80;88.00
73438;DHT22;62744;56.802;23.964;2022-10-30T04:03:32;6.90;88.60
73438;DHT22;62744;56.802;23.964;2022-10-30T04:06:00;7.00;88.10
73438;DHT22;62744;56.802;23.964;2022-10-30T04:08:27;7.00;88.00
73438;DHT22;62744;56.802;23.964;2022-10-30T04:10:55;6.90;88.20
73438;DHT22;62744;56.802;23.964;2022-10-30T04:13:23;7.00;88.40
73438;DHT22;62744;56.802;23.964;2022-10-30T04:15:51;6.90;88.60
73438;DHT22;62744;56.802;23.964;2022-10-30T04:18:23;6.90;88.50
73438;DHT22;62744;56.802;23.964;2022-10-30T04:20:51;6.70;88.30
73438;DHT22;62744;56.802;23.964;2022-10-30T04:23:20;6.80;88.30
73438;DHT22;62744;56.802;23.964;2022-10-30T04:25:47;6.90;88.40
73438;DHT22;62744;56.802;23.964;2022-10-30T04:28:15;6.60;88.40
73438;DHT22;62744;56.802;23.964;2022-10-30T04:30:43;6.60;88.70
73438;DHT22;62744;56.802;23.964;2022-10-30T04:33:13;6.50;88.90
73438;DHT22;62744;56.802;23.964;2022-10-30T04:35:41;6.40;89.30
73438;DHT22;62744;56.802;23.964;2022-10-30T04:38:17;6.40;89.40
73438;DHT22;62744;56.802;23.964;2022-10-30T04:40:47;6.30;89.80
73438;DHT22;62744;56.802;23.964;2022-10-30T04:43:16;6.10;89.90
73438;DHT22;62744;56.802;23.964;2022-10-30T04:45:43;6.20;89.70
73438;DHT22;62744;56.802;23.964;2022-10-30T04:48:15;6.30;89.90
73438;DHT22;62744;56.802;23.964;2022-10-30T04:50:43;6.20;90.10
73438;DHT22;62744;56.802;23.964;2022-10-30T04:53:18;6.30;90.40
73438;DHT22;62744;56.802;23.964;2022-10-30T04:55:45;6.30;90.40
73438;DHT22;62744;56.802;23.964;2022-10-30T04:58:13;6.30;90.30
73438;DHT22;62744;56.802;23.964;2022-10-30T05:00:41;6.30;89.70
73438;DHT22;62744;56.802;23.964;2022-10-30T05:03:22;6.30;89.50
73438;DHT22;62744;56.802;23.964;2022-10-30T05:08:45;6.30;89.80
73438;DHT22;62744;56.802;23.964;2022-10-30T05:11:12;6.20;89.40
73438;DHT22;62744;56.802;23.964;2022-10-30T05:13:40;6.20;90.30
73438;DHT22;62744;56.802;23.964;2022-10-30T05:16:07;6.20;90.10
73438;DHT22;62744;56.802;23.964;2022-10-30T05:18:35;5.90;90.20
73438;DHT22;62744;56.802;23.964;2022-10-30T05:21:02;6.10;90.20
73438;DHT22;62744;56.802;23.964;2022-10-30T05:23:30;6.20;90.20
73438;DHT22;62744;56.802;23.964;2022-10-30T05:26:01;5.90;90.60
73438;DHT22;62744;56.802;23.964;2022-10-30T05:28:28;6.00;90.40
73438;DHT22;62744;56.802;23.964;2022-10-30T05:30:56;6.10;91.00
73438;DHT22;62744;56.802;23.964;2022-10-30T05:33:23;6.10;90.50
73438;DHT22;62744;56.802;23.964;2022-10-30T05:35:51;5.90;91.10
73438;DHT22;62744;56.802;23.964;2022-10-30T05:38:18;6.10;90.80
73438;DHT22;62744;56.802;23.964;2022-10-30T05:40:46;6.20;90.50
73438;DHT22;62744;56.802;23.964;2022-10-30T05:43:13;6.10;90.60
73438;DHT22;62744;56.802;23.964;2022-10-30T05:45:41;6.30;90.80
73438;DHT22;62744;56.802;23.964;2022-10-30T05:48:08;6.20;90.80
73438;DHT22;62744;56.802;23.964;2022-10-30T05:50:36;6.20;90.70
73438;DHT22;62744;56.802;23.964;2022-10-30T05:53:04;6.20;90.90
73438;DHT22;62744;56.802;23.964;2022-10-30T05:55:32;6.10;90.80
73438;DHT22;62744;56.802;23.964;2022-10-30T05:58:02;6.20;90.60
73438;DHT22;62744;56.802;23.964;2022-10-30T06:00:33;6.20;90.10
73438;DHT22;62744;56.802;23.964;2022-10-30T06:03:04;6.20;90.70
73438;DHT22;62744;56.802;23.964;2022-10-30T06:05:34;6.30;90.60
73438;DHT22;62744;56.802;23.964;2022-10-30T06:08:03;6.30;90.40
73438;DHT22;62744;56.802;23.964;2022-10-30T06:10:32;6.40;91.00
73438;DHT22;62744;56.802;23.964;2022-10-30T06:13:01;6.40;90.40
73438;DHT22;62744;56.802;23.964;2022-10-30T06:15:30;6.40;90.20
73438;DHT22;62744;56.802;23.964;2022-10-30T06:17:58;6.50;90.50
73438;DHT22;62744;56.802;23.964;2022-10-30T06:20:29;6.60;90.10
73438;DHT22;62744;56.802;23.964;2022-10-30T06:23:02;6.50;89.90
73438;DHT22;62744;56.802;23.964;2022-10-30T06:25:31;6.60;89.30
73438;DHT22;62744;56.802;23.964;2022-10-30T06:28:07;6.70;89.50
73438;DHT22;62744;56.802;23.964;2022-10-30T06:30:35;6.50;89.70
73438;DHT22;62744;56.802;23.964;2022-10-30T06:33:04;6.70;89.70
73438;DHT22;62744;56.802;23.964;2022-10-30T06:35:31;6.60;89.60
73438;DHT22;62744;56.802;23.964;2022-10-30T06:37:59;6.50;90.10
73438;DHT22;62744;56.802;23.964;2022-10-30T06:40:27;6.60;90.00
73438;DHT22;62744;56.802;23.964;2022-10-30T06:42:56;6.60;90.30
73438;DHT22;62744;56.802;23.964;2022-10-30T06:45:24;6.60;90.10
73438;DHT22;62744;56.802;23.964;2022-10-30T06:47:52;6.60;90.00
73438;DHT22;62744;56.802;23.964;2022-10-30T06:50:20;6.50;89.60
73438;DHT22;62744;56.802;23.964;2022-10-30T06:52:48;6.70;90.30
73438;DHT22;62744;56.802;23.964;2022-10-30T06:55:16;6.80;89.90
73438;DHT22;62744;56.802;23.964;2022-10-30T06:57:43;6.80;89.80
73438;DHT22;62744;56.802;23.964;2022-10-30T07:00:12;6.90;89.30
73438;DHT22;62744;56.802;23.964;2022-10-30T07:02:39;6.90;89.80
73438;DHT22;62744;56.802;23.964;2022-10-30T07:05:07;7.20;89.30
73438;DHT22;62744;56.802;23.964;2022-10-30T07:07:35;7.20;89.30
73438;DHT22;62744;56.802;23.964;2022-10-30T07:10:02;7.20;89.70
73438;DHT22;62744;56.802;23.964;2022-10-30T07:12:30;7.40;88.80
73438;DHT22;62744;56.802;23.964;2022-10-30T07:14:57;7.40;88.40
73438;DHT22;62744;56.802;23.964;2022-10-30T07:17:24;7.40;88.90
73438;DHT22;62744;56.802;23.964;2022-10-30T07:19:52;7.50;88.60
73438;DHT22;62744;56.802;23.964;2022-10-30T07:22:20;7.60;88.60
73438;DHT22;62744;56.802;23.964;2022-10-30T07:24:47;7.60;88.90
73438;DHT22;62744;56.802;23.964;2022-10-30T07:27:15;7.70;88.70
73438;DHT22;62744;56.802;23.964;2022-10-30T07:29:43;7.90;88.70
73438;DHT22;62744;56.802;23.964;2022-10-30T07:32:11;8.00;88.60
73438;DHT22;62744;56.802;23.964;2022-10-30T07:34:39;8.20;88.30
73438;DHT22;62744;56.802;23.964;2022-10-30T07:37:07;8.20;87.90
73438;DHT22;62744;56.802;23.964;2022-10-30T07:39:35;8.30;87.00
73438;DHT22;62744;56.802;23.964;2022-10-30T07:42:02;8.30;86.70
73438;DHT22;62744;56.802;23.964;2022-10-30T07:44:30;8.40;86.80
73438;DHT22;62744;56.802;23.964;2022-10-30T07:46:58;8.50;86.20
73438;DHT22;62744;56.802;23.964;2022-10-30T07:49:26;8.60;86.10
73438;DHT22;62744;56.802;23.964;2022-10-30T07:51:53;8.80;86.10
73438;DHT22;62744;56.802;23.964;2022-10-30T07:54:21;8.80;85.70
73438;DHT22;62744;56.802;23.964;2022-10-30T07:56:48;8.90;86.00
73438;DHT22;62744;56.802;23.964;2022-10-30T07:59:16;8.90;85.40
73438;DHT22;62744;56.802;23.964;2022-10-30T08:01:45;9.00;85.70
73438;DHT22;62744;56.802;23.964;2022-10-30T08:04:13;9.00;85.80
73438;DHT22;62744;56.802;23.964;2022-10-30T08:06:41;9.10;85.30
73438;DHT22;62744;56.802;23.964;2022-10-30T08:09:09;9.60;90.20
73438;DHT22;62744;56.802;23.964;2022-10-30T08:11:36;10.20;86.00
73438;DHT22;62744;56.802;23.964;2022-10-30T08:14:04;10.30;83.70
73438;DHT22;62744;56.802;23.964;2022-10-30T08:16:31;10.70;85.20
73438;DHT22;62744;56.802;23.964;2022-10-30T08:18:59;10.60;81.40
73438;DHT22;62744;56.802;23.964;2022-10-30T08:21:27;10.30;81.70
73438;DHT22;62744;56.802;23.964;2022-10-30T08:23:54;10.20;81.80
73438;DHT22;62744;56.802;23.964;2022-10-30T08:26:22;10.10;82.60
73438;DHT22;62744;56.802;23.964;2022-10-30T08:28:49;10.10;82.50
73438;DHT22;62744;56.802;23.964;2022-10-30T08:31:17;10.20;82.70
73438;DHT22;62744;56.802;23.964;2022-10-30T08:33:44;10.10;82.00
73438;DHT22;62744;56.802;23.964;2022-10-30T08:36:12;10.10;81.70
73438;DHT22;62744;56.802;23.964;2022-10-30T08:38:39;10.20;82.20
73438;DHT22;62744;56.802;23.964;2022-10-30T08:41:07;10.20;82.20
73438;DHT22;62744;56.802;23.964;2022-10-30T08:43:34;10.30;81.90
73438;DHT22;62744;56.802;23.964;2022-10-30T08:46:02;10.30;82.40
73438;DHT22;62744;56.802;23.964;2022-10-30T08:48:29;10.30;81.30
73438;DHT22;62744;56.802;23.964;2022-10-30T08:50:57;10.30;81.40
73438;DHT22;62744;56.802;23.964;2022-10-30T08:53:27;10.30;81.00
73438;DHT22;62744;56.802;23.964;2022-10-30T08:55:54;10.30;80.10
73438;DHT22;62744;56.802;23.964;2022-10-30T08:58:22;10.20;80.80
73438;DHT22;62744;56.802;23.964;2022-10-30T09:00:50;10.30;80.40
73438;DHT22;62744;56.802;23.964;2022-10-30T09:03:24;10.50;80.50
73438;DHT22;62744;56.802;23.964;2022-10-30T09:05:52;10.50;80.80
73438;DHT22;62744;56.802;23.964;2022-10-30T09:08:19;10.60;79.80
73438;DHT22;62744;56.802;23.964;2022-10-30T09:10:47;10.70;80.10
73438;DHT22;62744;56.802;23.964;2022-10-30T09:13:15;10.80;78.80
73438;DHT22;62744;56.802;23.964;2022-10-30T09:15:42;10.70;78.40
73438;DHT22;62744;56.802;23.964;2022-10-30T09:18:10;10.80;78.40
73438;DHT22;62744;56.802;23.964;2022-10-30T09:20:37;10.80;77.40
73438;DHT22;62744;56.802;23.964;2022-10-30T09:23:05;10.80;77.10
73438;DHT22;62744;56.802;23.964;2022-10-30T09:25:32;10.70;77.40
73438;DHT22;62744;56.802;23.964;2022-10-30T09:28:00;10.70;77.10
73438;DHT22;62744;56.802;23.964;2022-10-30T09:30:27;10.90;78.50
73438;DHT22;62744;56.802;23.964;2022-10-30T09:32:59;10.90;76.80
73438;DHT22;62744;56.802;23.964;2022-10-30T09:35:29;10.90;77.10
73438;DHT22;62744;56.802;23.964;2022-10-30T09:37:58;10.80;76.40
73438;DHT22;62744;56.802;23.964;2022-10-30T09:43:32;10.80;76.30
73438;DHT22;62744;56.802;23.964;2022-10-30T09:54:15;10.90;76.80
73438;DHT22;62744;56.802;23.964;2022-10-30T09:57:07;11.10;77.00
73438;DHT22;62744;56.802;23.964;2022-10-30T09:59:53;11.10;75.90
73438;DHT22;62744;56.802;23.964;2022-10-30T10:03:01;11.00;76.50
73438;DHT22;62744;56.802;23.964;2022-10-30T10:05:28;11.10;77.00
73438;DHT22;62744;56.802;23.964;2022-10-30T10:08:03;11.00;76.10
73438;DHT22;62744;56.802;23.964;2022-10-30T10:10:37;11.20;76.60
73438;DHT22;62744;56.802;23.964;2022-10-30T10:18:50;11.20;75.10
73438;DHT22;62744;56.802;23.964;2022-10-30T10:21:27;11.20;75.70
73438;DHT22;62744;56.802;23.964;2022-10-30T10:24:01;11.40;75.00
73438;DHT22;62744;56.802;23.964;2022-10-30T10:26:49;11.30;73.30
73438;DHT22;62744;56.802;23.964;2022-10-30T10:32:20;11.50;73.70
73438;DHT22;62744;56.802;23.964;2022-10-30T10:51:31;11.30;73.70
73438;DHT22;62744;56.802;23.964;2022-10-30T10:54:09;11.30;72.20
73438;DHT22;62744;56.802;23.964;2022-10-30T10:56:40;11.30;73.10
73438;DHT22;62744;56.802;23.964;2022-10-30T10:59:26;11.30;73.50
73438;DHT22;62744;56.802;23.964;2022-10-30T11:04:41;11.50;73.80
73438;DHT22;62744;56.802;23.964;2022-10-30T11:07:46;11.80;72.40
73438;DHT22;62744;56.802;23.964;2022-10-30T11:10:16;11.70;73.00
73438;DHT22;62744;56.802;23.964;2022-10-30T11:12:45;11.80;72.30
73438;DHT22;62744;56.802;23.964;2022-10-30T11:15:39;11.70;71.80
73438;DHT22;62744;56.802;23.964;2022-10-30T11:18:09;11.80;72.60
73438;DHT22;62744;56.802;23.964;2022-10-30T11:20:39;11.80;72.60
73438;DHT22;62744;56.802;23.964;2022-10-30T11:23:31;11.80;71.50
73438;DHT22;62744;56.802;23.964;2022-10-30T11:26:03;11.90;72.40
73438;DHT22;62744;56.802;23.964;2022-10-30T11:29:11;11.80;71.80
73438;DHT22;62744;56.802;23.964;2022-10-30T11:31:41;11.70;72.20
73438;DHT22;62744;56.802;23.964;2022-10-30T11:39:18;11.60;72.30
73438;DHT22;62744;56.802;23.964;2022-10-30T11:44:41;11.50;71.20
73438;DHT22;62744;56.802;23.964;2022-10-30T11:47:10;11.60;71.90
73438;DHT22;62744;56.802;23.964;2022-10-30T11:49:48;11.50;71.90
73438;DHT22;62744;56.802;23.964;2022-10-30T11:52:20;11.40;71.20
73438;DHT22;62744;56.802;23.964;2022-10-30T11:54:59;11.40;71.20
73438;DHT22;62744;56.802;23.964;2022-10-30T11:57:34;11.40;70.40
73438;DHT22;62744;56.802;23.964;2022-10-30T12:00:07;11.30;71.20
73438;DHT22;62744;56.802;23.964;2022-10-30T12:02:45;11.30;70.80
73438;DHT22;62744;56.802;23.964;2022-10-30T12:08:21;11.30;75.60
73438;DHT22;62744;56.802;23.964;2022-10-30T12:13:20;11.10;76.60
73438;DHT22;62744;56.802;23.964;2022-10-30T12:16:12;11.00;76.90
73438;DHT22;62744;56.802;23.964;2022-10-30T12:18:42;10.90;76.80
73438;DHT22;62744;56.802;23.964;2022-10-30T12:21:19;10.80;77.10
73438;DHT22;62744;56.802;23.964;2022-10-30T12:23:56;10.90;76.80
73438;DHT22;62744;56.802;23.964;2022-10-30T12:26:24;10.80;76.60
73438;DHT22;62744;56.802;23.964;2022-10-30T12:29:05;10.70;76.70
73438;DHT22;62744;56.802;23.964;2022-10-30T12:37:19;10.70;76.30
73438;DHT22;62744;56.802;23.964;2022-10-30T12:40:55;10.70;76.60
73438;DHT22;62744;56.802;23.964;2022-10-30T12:43:17;10.70;76.80
73438;DHT22;62744;56.802;23.964;2022-10-30T12:45:48;10.70;76.60
73438;DHT22;62744;56.802;23.964;2022-10-30T12:48:21;10.70;77.10
73438;DHT22;62744;56.802;23.964;2022-10-30T12:51:11;10.70;77.00
73438;DHT22;62744;56.802;23.964;2022-10-30T12:53:58;10.70;77.20
73438;DHT22;62744;56.802;23.964;2022-10-30T12:56:32;10.70;78.20
73438;DHT22;62744;56.802;23.964;2022-10-30T13:01:56;10.60;76.90
73438;DHT22;62744;56.802;23.964;2022-10-30T13:04:30;10.50;77.20
73438;DHT22;62744;56.802;23.964;2022-10-30T13:07:22;10.40;77.00
73438;DHT22;62744;56.802;23.964;2022-10-30T13:10:11;10.30;77.20
73438;DHT22;62744;56.802;23.964;2022-10-30T13:12:46;10.30;77.40
73438;DHT22;62744;56.802;23.964;2022-10-30T13:15:23;10.30;77.80
73438;DHT22;62744;56.802;23.964;2022-10-30T13:17:52;10.30;76.50
73438;DHT22;62744;56.802;23.964;2022-10-30T13:20:20;10.20;76.30
73438;DHT22;62744;56.802;23.964;2022-10-30T13:25:30;10.20;76.30
73438;DHT22;62744;56.802;23.964;2022-10-30T13:28:24;10.20;75.90
73438;DHT22;62744;56.802;23.964;2022-10-30T13:31:08;10.20;76.20
73438;DHT22;62744;56.802;23.964;2022-10-30T13:33:50;10.20;75.60
73438;DHT22;62744;56.802;23.964;2022-10-30T13:36:39;10.10;76.10
73438;DHT22;62744;56.802;23.964;2022-10-30T13:39:21;10.10;76.50
73438;DHT22;62744;56.802;23.964;2022-10-30T13:42:18;10.10;76.20
73438;DHT22;62744;56.802;23.964;2022-10-30T13:52:57;9.90;76.30
73438;DHT22;62744;56.802;23.964;2022-10-30T13:55:30;9.80;75.00
73438;DHT22;62744;56.802;23.964;2022-10-30T14:01:00;9.70;74.80
73438;DHT22;62744;56.802;23.964;2022-10-30T14:03:40;9.70;74.60
73438;DHT22;62744;56.802;23.964;2022-10-30T14:06:29;9.70;75.30
73438;DHT22;62744;56.802;23.964;2022-10-30T14:09:05;9.70;74.20
73438;DHT22;62744;56.802;23.964;2022-10-30T14:11:34;9.60;73.90
73438;DHT22;62744;56.802;23.964;2022-10-30T14:14:29;9.60;73.60
73438;DHT22;62744;56.802;23.964;2022-10-30T14:17:13;9.60;73.80
73438;DHT22;62744;56.802;23.964;2022-10-30T14:22:41;9.50;74.80
73438;DHT22;62744;56.802;23.964;2022-10-30T14:25:14;9.40;75.00
73438;DHT22;62744;56.802;23.964;2022-10-30T14:27:42;9.40;75.70
73438;DHT22;62744;56.802;23.964;2022-10-30T14:30:22;9.30;76.00
73438;DHT22;62744;56.802;23.964;2022-10-30T14:32:50;9.40;76.70
73438;DHT22;62744;56.802;23.964;2022-10-30T14:36:06;9.30;76.90
73438;DHT22;62744;56.802;23.964;2022-10-30T14:38:35;9.30;77.60
73438;DHT22;62744;56.802;23.964;2022-10-30T14:44:16;9.70;78.20
73438;DHT22;62744;56.802;23.964;2022-10-30T14:49:46;9.40;79.00
73438;DHT22;62744;56.802;23.964;2022-10-30T14:52:19;9.30;79.60
73438;DHT22;62744;56.802;23.964;2022-10-30T14:57:44;9.20;80.30
73438;DHT22;62744;56.802;23.964;2022-10-30T15:06:05;9.00;80.90
73438;DHT22;62744;56.802;23.964;2022-10-30T15:11:44;9.10;80.30
73438;DHT22;62744;56.802;23.964;2022-10-30T15:15:03;9.10;79.80
73438;DHT22;62744;56.802;23.964;2022-10-30T15:17:51;9.00;80.00
73438;DHT22;62744;56.802;23.964;2022-10-30T15:20:20;9.00;80.00
73438;DHT22;62744;56.802;23.964;2022-10-30T15:22:57;9.00;79.80
73438;DHT22;62744;56.802;23.964;2022-10-30T15:25:36;9.10;79.30
73438;DHT22;62744;56.802;23.964;2022-10-30T15:28:20;9.10;79.00
73438;DHT22;62744;56.802;23.964;2022-10-30T15:31:02;9.10;78.80
73438;DHT22;62744;56.802;23.964;2022-10-30T15:33:37;9.00;78.20
73438;DHT22;62744;56.802;23.964;2022-10-30T15:36:22;9.00;77.70
73438;DHT22;62744;56.802;23.964;2022-10-30T15:41:45;8.90;76.80
73438;DHT22;62744;56.802;23.964;2022-10-30T15:44:21;9.00;77.00
73438;DHT22;62744;56.802;23.964;2022-10-30T15:46:56;8.90;76.80
73438;DHT22;62744;56.802;23.964;2022-10-30T15:49:33;8.80;76.30
73438;DHT22;62744;56.802;23.964;2022-10-30T15:52:04;8.80;76.40
73438;DHT22;62744;56.802;23.964;2022-10-30T15:54:41;8.80;76.30
73438;DHT22;62744;56.802;23.964;2022-10-30T15:57:27;8.80;76.50
73438;DHT22;62744;56.802;23.964;2022-10-30T16:00:22;8.80;76.20
73438;DHT22;62744;56.802;23.964;2022-10-30T16:03:15;8.80;76.30
73438;DHT22;62744;56.802;23.964;2022-10-30T16:05:44;8.80;76.50
73438;DHT22;62744;56.802;23.964;2022-10-30T16:08:20;8.80;76.90
73438;DHT22;62744;56.802;23.964;2022-10-30T16:10:54;8.80;77.00
73438;DHT22;62744;56.802;23.964;2022-10-30T16:13:28;8.80;76.90
73438;DHT22;62744;56.802;23.964;2022-10-30T16:16:01;8.80;76.90
73438;DHT22;62744;56.802;23.964;2022-10-30T16:18:31;8.80;77.00
73438;DHT22;62744;56.802;23.964;2022-10-30T16:21:05;8.90;76.90
73438;DHT22;62744;56.802;23.964;2022-10-30T16:23:55;8.80;77.00
73438;DHT22;62744;56.802;23.964;2022-10-30T16:26:25;8.80;77.40
73438;DHT22;62744;56.802;23.964;2022-10-30T16:28:54;8.80;77.40
73438;DHT22;62744;56.802;23.964;2022-10-30T16:31:23;8.80;77.20
73438;DHT22;62744;56.802;23.964;2022-10-30T16:33:56;8.90;77.80
73438;DHT22;62744;56.802;23.964;2022-10-30T16:36:24;8.90;77.70
73438;DHT22;62744;56.802;23.964;2022-10-30T16:38:53;8.90;78.00
73438;DHT22;62744;56.802;23.964;2022-10-30T16:41:23;8.90;78.40
73438;DHT22;62744;56.802;23.964;2022-10-30T16:46:51;8.90;78.60
73438;DHT22;62744;56.802;23.964;2022-10-30T16:49:29;8.80;79.00
73438;DHT22;62744;56.802;23.964;2022-10-30T16:52:03;8.70;79.40
73438;DHT22;62744;56.802;23.964;2022-10-30T16:54:38;8.60;79.40
73438;DHT22;62744;56.802;23.964;2022-10-30T16:57:26;8.60;79.20
73438;DHT22;62744;56.802;23.964;2022-10-30T16:59:55;8.60;78.70
73438;DHT22;62744;56.802;23.964;2022-10-30T17:02:26;8.70;78.60
73438;DHT22;62744;56.802;23.964;2022-10-30T17:07:30;8.50;78.20
73438;DHT22;62744;56.802;23.964;2022-10-30T17:09:58;8.70;78.20
73438;DHT22;62744;56.802;23.964;2022-10-30T17:12:28;8.60;78.10
73438;DHT22;62744;56.802;23.964;2022-10-30T17:17:36;8.70;78.30
73438;DHT22;62744;56.802;23.964;2022-10-30T17:22:41;8.60;78.60
73438;DHT22;62744;56.802;23.964;2022-10-30T17:25:36;8.60;78.40
73438;DHT22;62744;56.802;23.964;2022-10-30T17:28:04;8.70;78.00
73438;DHT22;62744;56.802;23.964;2022-10-30T17:30:40;8.50;77.90
73438;DHT22;62744;56.802;23.964;2022-10-30T17:33:33;8.60;78.00
73438;DHT22;62744;56.802;23.964;2022-10-30T17:36:04;8.50;77.10
73438;DHT22;62744;56.802;23.964;2022-10-30T17:38:32;8.40;77.20
73438;DHT22;62744;56.802;23.964;2022-10-30T17:41:02;8.40;77.60
73438;DHT22;62744;56.802;23.964;2022-10-30T17:43:33;8.50;77.60
73438;DHT22;62744;56.802;23.964;2022-10-30T17:46:01;8.50;78.60
73438;DHT22;62744;56.802;23.964;2022-10-30T17:48:29;8.40;77.10
73438;DHT22;62744;56.802;23.964;2022-10-30T17:50:58;8.50;76.70
73438;DHT22;62744;56.802;23.964;2022-10-30T17:53:25;8.50;76.60
73438;DHT22;62744;56.802;23.964;2022-10-30T17:56:24;8.50;76.60
73438;DHT22;62744;56.802;23.964;2022-10-30T17:58:54;8.50;76.50
73438;DHT22;62744;56.802;23.964;2022-10-30T18:01:25;8.40;77.00
73438;DHT22;62744;56.802;23.964;2022-10-30T18:03:54;8.40;76.90
73438;DHT22;62744;56.802;23.964;2022-10-30T18:06:24;8.40;77.00
73438;DHT22;62744;56.802;23.964;2022-10-30T18:08:53;8.40;77.10
73438;DHT22;62744;56.802;23.964;2022-10-30T18:11:22;8.40;76.50
73438;DHT22;62744;56.802;23.964;2022-10-30T18:13:51;8.30;76.40
73438;DHT22;62744;56.802;23.964;2022-10-30T18:16:19;8.30;76.30
73438;DHT22;62744;56.802;23.964;2022-10-30T18:18:47;8.30;76.40
73438;DHT22;62744;56.802;23.964;2022-10-30T18:21:22;8.20;76.00